createdAt,value
2019-05-16T00:00:12.507Z,94575.52
2019-05-16T00:02:38.836Z,94582.89
2019-05-16T00:05:05.179Z,94578.08
2019-05-16T00:07:31.495Z,94583.73
2019-05-16T00:09:58.998Z,94584.09
2019-05-16T00:12:24.160Z,94587.03
2019-05-16T00:14:50.487Z,94581.20
2019-05-16T00:17:18.874Z,94572.34
2019-05-16T00:19:43.250Z,94570.94
2019-05-16T00:22:09.640Z,94566.87
2019-05-16T00:24:38.038Z,94561.27
2019-05-16T00:27:02.304Z,94562.05
2019-05-16T00:29:28.619Z,94559.16
2019-05-16T00:31:54.948Z,94559.73
2019-05-16T00:34:21.282Z,94552.27
2019-05-16T00:36:48.791Z,94548.64
2019-05-16T00:39:13.984Z,94545.73
2019-05-16T00:41:40.352Z,94546.91
2019-05-16T00:44:08.442Z,94540.38
2019-05-16T00:46:32.976Z,94539.31
2019-05-16T00:48:59.318Z,94536.03
2019-05-16T00:51:25.649Z,94534.88
2019-05-16T00:53:52.000Z,94532.08
2019-05-16T00:56:18.770Z,94536.86
2019-05-16T00:58:44.695Z,94533.61
2019-05-16T01:01:11.023Z,94531.73
2019-05-16T01:03:37.816Z,94536.73
2019-05-16T01:06:15.746Z,94528.34
2019-05-16T01:08:30.029Z,94527.66
2019-05-16T01:10:58.511Z,94528.48
2019-05-16T01:13:22.678Z,94529.86
2019-05-16T01:15:49.052Z,94533.59
2019-05-16T01:18:15.570Z,94530.80
2019-05-16T01:20:41.876Z,94524.05
2019-05-16T01:25:34.543Z,94529.88
2019-05-16T01:28:00.929Z,94524.50
2019-05-16T01:30:28.649Z,94529.42
2019-05-16T01:32:53.639Z,94524.74
2019-05-16T01:35:19.960Z,94519.00
2019-05-16T01:37:48.587Z,94514.58
2019-05-16T01:40:12.659Z,94513.86
2019-05-16T01:42:39.040Z,94510.73
2019-05-16T01:45:05.372Z,94511.91
2019-05-16T01:47:31.694Z,94500.13
2019-05-16T01:49:58.172Z,94500.45
2019-05-16T01:52:24.360Z,94499.17
2019-05-16T01:54:50.744Z,94497.56
2019-05-16T01:57:18.113Z,94508.83
2019-05-16T01:59:43.367Z,94510.40
2019-05-16T02:02:09.736Z,94509.11
2019-05-16T02:04:38.013Z,94510.47
2019-05-16T02:07:02.444Z,94510.70
2019-05-16T02:09:28.766Z,94510.93
2019-05-16T02:11:55.105Z,94518.56
2019-05-16T02:14:21.434Z,94515.14
2019-05-16T02:16:47.825Z,94513.96
2019-05-16T02:19:14.095Z,94512.59
2019-05-16T02:21:40.536Z,94511.53
2019-05-16T02:24:08.894Z,94512.67
2019-05-16T02:26:33.272Z,94515.02
2019-05-16T02:29:00.880Z,94518.88
2019-05-16T02:31:25.991Z,94515.48
2019-05-16T02:33:52.354Z,94521.57
2019-05-16T02:36:21.559Z,94515.84
2019-05-16T02:38:45.009Z,94507.91
2019-05-16T02:41:11.383Z,94501.36
2019-05-16T02:43:37.729Z,94501.14
2019-05-16T02:46:04.054Z,94502.32
2019-05-16T02:48:31.826Z,94504.89
2019-05-16T02:50:56.728Z,94498.11
2019-05-16T02:53:23.062Z,94492.75
2019-05-16T02:55:51.635Z,94504.30
2019-05-16T02:58:15.722Z,94504.17
2019-05-16T03:00:42.970Z,94505.34
2019-05-16T03:03:11.615Z,94502.20
2019-05-16T03:05:34.772Z,94502.56
2019-05-16T03:08:01.430Z,94511.75
2019-05-16T03:10:27.558Z,94513.52
2019-05-16T03:12:53.933Z,94513.61
2019-05-16T03:15:21.737Z,94511.17
2019-05-16T03:17:46.692Z,94514.78
2019-05-16T03:20:12.970Z,94512.47
2019-05-16T03:22:40.977Z,94506.64
2019-05-16T03:25:05.644Z,94507.00
2019-05-16T03:27:32.029Z,94511.78
2019-05-16T03:30:01.539Z,94511.05
2019-05-16T03:32:24.781Z,94506.99
2019-05-16T03:34:54.733Z,94504.07
2019-05-16T03:37:17.373Z,94514.92
2019-05-16T03:39:43.713Z,94519.09
2019-05-16T03:42:12.579Z,94514.78
2019-05-16T03:44:36.381Z,94513.04
2019-05-16T03:47:02.739Z,94512.80
2019-05-16T03:49:31.259Z,94518.30
2019-05-16T03:51:55.400Z,94515.48
2019-05-16T03:54:21.737Z,94509.88
2019-05-16T03:56:51.185Z,94509.06
2019-05-16T04:01:41.177Z,94509.88
2019-05-16T04:04:07.128Z,94509.75
2019-05-16T04:06:33.566Z,94511.61
2019-05-16T04:09:01.648Z,94512.33
2019-05-16T04:11:26.256Z,94509.86
2019-05-16T04:13:52.627Z,94510.44
2019-05-16T04:16:20.918Z,94506.37
2019-05-16T04:18:45.412Z,94501.34
2019-05-16T04:21:12.146Z,94504.70
2019-05-16T04:23:41.667Z,94502.95
2019-05-16T04:26:04.477Z,94502.25
2019-05-16T04:28:31.814Z,94503.53
2019-05-16T04:30:57.278Z,94499.68
2019-05-16T04:33:23.610Z,94501.64
2019-05-16T04:35:52.487Z,94505.75
2019-05-16T04:38:30.171Z,94502.94
2019-05-16T04:40:42.667Z,94504.80
2019-05-16T04:43:11.382Z,94507.02
2019-05-16T04:45:35.353Z,94510.87
2019-05-16T04:48:01.726Z,94510.63
2019-05-16T04:50:30.975Z,94507.80
2019-05-16T04:55:21.170Z,94512.70
2019-05-16T04:57:47.086Z,94509.56
2019-05-16T05:00:13.464Z,94511.75
2019-05-16T05:02:41.781Z,94508.92
2019-05-16T05:05:06.135Z,94508.00
2019-05-16T05:07:32.505Z,94513.97
2019-05-16T05:10:00.566Z,94513.86
2019-05-16T05:12:25.369Z,94519.54
2019-05-16T05:14:51.699Z,94522.61
2019-05-16T05:17:20.862Z,94520.50
2019-05-16T05:19:44.416Z,94514.50
2019-05-16T05:22:10.794Z,94518.61
2019-05-16T05:24:37.122Z,94515.08
2019-05-16T05:27:03.463Z,94516.22
2019-05-16T05:29:30.690Z,94517.76
2019-05-16T05:31:56.245Z,94525.25
2019-05-16T05:34:22.582Z,94517.04
2019-05-16T05:36:51.212Z,94518.22
2019-05-16T05:39:15.691Z,94522.97
2019-05-16T05:41:41.684Z,94518.11
2019-05-16T05:44:10.441Z,94521.44
2019-05-16T05:46:34.528Z,94520.25
2019-05-16T05:49:00.859Z,94519.22
2019-05-16T05:51:27.205Z,94520.00
2019-05-16T05:53:53.569Z,94517.17
2019-05-16T05:56:19.943Z,94528.29
2019-05-16T05:58:46.247Z,94525.93
2019-05-16T06:01:13.838Z,94524.56
2019-05-16T06:03:39.867Z,94525.63
2019-05-16T06:06:05.262Z,94516.84
2019-05-16T06:08:31.727Z,94525.73
2019-05-16T06:10:58.060Z,94524.20
2019-05-16T06:13:24.399Z,94522.05
2019-05-16T06:15:51.351Z,94524.51
2019-05-16T06:20:43.485Z,94526.97
2019-05-16T06:23:10.593Z,94525.75
2019-05-16T06:25:36.152Z,94527.83
2019-05-16T06:28:02.510Z,94525.52
2019-05-16T06:30:30.456Z,94526.70
2019-05-16T06:32:55.187Z,94531.18
2019-05-16T06:35:24.136Z,94526.43
2019-05-16T06:37:49.899Z,94529.77
2019-05-16T06:42:40.608Z,94528.48
2019-05-16T06:45:06.971Z,94531.47
2019-05-16T06:47:33.319Z,94533.11
2019-05-16T06:50:00.232Z,94530.91
2019-05-16T06:52:25.977Z,94530.55
2019-05-16T06:54:53.887Z,94530.13
2019-05-16T06:57:20.587Z,94530.38
2019-05-16T06:59:45.156Z,94529.23
2019-05-16T07:02:25.274Z,94524.75
2019-05-16T07:04:39.799Z,94531.75
2019-05-16T07:07:04.200Z,94527.31
2019-05-16T07:09:30.547Z,94522.27
2019-05-16T07:11:56.918Z,94520.80
2019-05-16T07:14:23.422Z,94523.20
2019-05-16T07:16:49.745Z,94525.63
2019-05-16T07:19:15.952Z,94521.06
2019-05-16T07:21:42.335Z,94513.83
2019-05-16T07:24:10.661Z,94504.34
2019-05-16T07:26:34.999Z,94505.25
2019-05-16T07:29:01.399Z,94505.33
2019-05-16T07:31:29.848Z,94511.62
2019-05-16T07:33:54.105Z,94512.82
2019-05-16T07:36:21.056Z,94511.03
2019-05-16T07:38:46.824Z,94507.02
2019-05-16T07:41:14.088Z,94509.51
2019-05-16T07:43:40.039Z,94508.30
2019-05-16T07:48:32.265Z,94506.75
2019-05-16T07:51:00.567Z,94510.30
2019-05-16T07:53:24.982Z,94511.36
2019-05-16T07:55:51.357Z,94493.73
2019-05-16T07:58:21.239Z,94496.79
2019-05-16T08:00:52.273Z,94498.28
2019-05-16T08:03:10.654Z,94490.15
2019-05-16T08:05:36.772Z,94488.86
2019-05-16T08:08:03.158Z,94491.02
2019-05-16T08:10:37.869Z,94495.78
2019-05-16T08:12:55.911Z,94491.17
2019-05-16T08:15:22.248Z,94490.70
2019-05-16T08:17:51.213Z,94492.53
2019-05-16T08:20:14.983Z,94492.65
2019-05-16T08:22:41.718Z,94498.58
2019-05-16T08:25:07.720Z,94497.83
2019-05-16T08:27:34.069Z,94495.11
2019-05-16T08:30:02.548Z,94490.83
2019-05-16T08:32:31.135Z,94486.88
2019-05-16T08:34:55.600Z,94489.20
2019-05-16T08:39:50.741Z,94485.58
2019-05-16T08:42:14.587Z,94490.00
2019-05-16T08:44:41.927Z,94492.64
2019-05-16T08:47:07.364Z,94489.87
2019-05-16T08:49:33.717Z,94492.19
2019-05-16T08:50:11.731Z,94487.84
2019-05-16T08:52:01.547Z,94490.69
2019-05-16T08:54:26.434Z,94489.52
2019-05-16T08:56:52.767Z,94487.29
2019-05-16T08:59:21.530Z,94487.39
2019-05-16T09:01:52.085Z,94490.16
2019-05-16T09:04:12.036Z,94489.69
2019-05-16T09:06:42.205Z,94492.81
2019-05-16T09:09:25.812Z,94486.88
2019-05-16T09:11:43.405Z,94482.49
2019-05-16T09:13:57.511Z,94480.38
2019-05-16T09:16:23.920Z,94473.11
2019-05-16T09:18:51.176Z,94469.99
2019-05-16T09:21:18.272Z,94467.14
2019-05-16T09:23:42.957Z,94459.30
2019-05-16T09:26:09.287Z,94458.64
2019-05-16T09:28:38.980Z,94451.77
2019-05-16T09:31:01.985Z,94453.80
2019-05-16T09:33:28.468Z,94456.58
2019-05-16T09:35:57.290Z,94449.31
2019-05-16T09:38:23.743Z,94450.66
2019-05-16T09:40:48.050Z,94451.14
2019-05-16T09:43:17.434Z,94452.69
2019-05-16T09:45:40.288Z,94445.06
2019-05-16T09:48:08.062Z,94446.67
2019-05-16T09:50:32.990Z,94452.18
2019-05-16T09:55:26.872Z,94444.75
2019-05-16T09:57:54.941Z,94446.05
2019-05-16T10:00:18.470Z,94444.45
2019-05-16T10:02:47.439Z,94443.67
2019-05-16T10:05:13.553Z,94440.32
2019-05-16T10:07:38.770Z,94440.67
2019-05-16T10:10:06.460Z,94437.21
2019-05-16T10:12:30.804Z,94431.04
2019-05-16T10:14:59.591Z,94427.93
2019-05-16T10:17:23.486Z,94430.41
2019-05-16T10:19:49.837Z,94429.33
2019-05-16T10:22:17.034Z,94422.66
2019-05-16T10:24:42.591Z,94425.39
2019-05-16T10:27:08.927Z,94425.48
2019-05-16T10:29:37.819Z,94412.55
2019-05-16T10:32:01.620Z,94411.12
2019-05-16T10:34:28.011Z,94407.47
2019-05-16T10:36:57.332Z,94398.84
2019-05-16T10:39:20.657Z,94400.66
2019-05-16T10:41:47.043Z,94394.08
2019-05-16T10:44:13.405Z,94393.43
2019-05-16T10:46:39.804Z,94388.65
2019-05-16T10:49:06.132Z,94387.70
2019-05-16T10:51:32.607Z,94386.63
2019-05-16T10:54:09.006Z,94386.53
2019-05-16T10:56:25.253Z,94387.73
2019-05-16T10:59:14.691Z,94387.14
2019-05-16T11:01:27.113Z,94391.45
2019-05-16T11:03:48.656Z,94394.86
2019-05-16T11:06:24.832Z,94392.83
2019-05-16T11:08:39.541Z,94393.73
2019-05-16T11:11:03.523Z,94394.82
2019-05-16T11:13:29.872Z,94394.26
2019-05-16T11:15:56.220Z,94388.66
2019-05-16T11:20:49.602Z,94391.72
2019-05-16T11:23:22.311Z,94389.00
2019-05-16T11:25:41.787Z,94379.94
2019-05-16T11:28:08.197Z,94379.05
2019-05-16T11:30:37.337Z,94379.42
2019-05-16T11:33:00.880Z,94369.17
2019-05-16T11:35:27.452Z,94374.09
2019-05-16T11:37:53.730Z,94378.13
2019-05-16T11:42:48.716Z,94397.80
2019-05-16T11:45:12.787Z,94422.24
2019-05-16T11:47:39.115Z,94437.16
2019-05-16T11:50:07.407Z,94440.99
2019-05-16T11:52:31.819Z,94433.97
2019-05-16T11:54:58.222Z,94422.88
2019-05-16T11:57:24.578Z,94431.44
2019-05-16T11:59:51.407Z,94435.57
2019-05-16T12:02:17.722Z,94443.67
2019-05-16T12:04:47.012Z,94446.59
2019-05-16T12:07:10.419Z,94439.27
2019-05-16T12:09:47.293Z,94438.03
2019-05-16T12:12:04.448Z,94441.43
2019-05-16T12:14:29.632Z,94439.74
2019-05-16T12:16:56.932Z,94426.98
2019-05-16T12:19:22.415Z,94421.81
2019-05-16T12:21:48.774Z,94409.50
2019-05-16T12:24:29.281Z,94407.73
2019-05-16T12:26:41.496Z,94399.63
2019-05-16T12:29:07.913Z,94400.17
2019-05-16T12:31:37.141Z,94410.95
2019-05-16T12:34:00.584Z,94401.92
2019-05-16T12:36:26.964Z,94385.34
2019-05-16T12:38:53.309Z,94383.12
2019-05-16T12:41:19.707Z,94382.14
2019-05-16T12:43:52.605Z,94381.31
2019-05-16T12:46:12.430Z,94386.42
2019-05-16T12:48:38.809Z,94390.86
2019-05-16T12:51:08.407Z,94400.91
2019-05-16T12:53:32.001Z,94393.69
2019-05-16T12:55:57.875Z,94400.09
2019-05-16T12:58:26.118Z,94393.52
2019-05-16T13:00:58.284Z,94399.63
2019-05-16T13:03:16.990Z,94401.20
2019-05-16T13:05:43.332Z,94414.00
2019-05-16T13:08:09.694Z,94413.42
2019-05-16T13:10:37.995Z,94431.17
2019-05-16T13:13:02.570Z,94433.73
2019-05-16T13:15:28.925Z,94446.66
2019-05-16T13:17:57.154Z,94450.89
2019-05-16T13:20:21.899Z,94456.52
2019-05-16T13:22:48.285Z,94457.30
2019-05-16T13:25:18.051Z,94469.45
2019-05-16T13:27:41.504Z,94471.51
2019-05-16T13:30:07.881Z,94478.41
2019-05-16T13:32:34.234Z,94485.86
2019-05-16T13:35:00.596Z,94483.56
2019-05-16T13:37:27.620Z,94482.73
2019-05-16T13:39:53.620Z,94480.84
2019-05-16T13:42:19.953Z,94486.33
2019-05-16T13:44:47.141Z,94488.66
2019-05-16T13:47:12.655Z,94490.08
2019-05-16T13:49:39.009Z,94494.22
2019-05-16T13:52:07.270Z,94479.82
2019-05-16T13:54:31.725Z,94486.53
2019-05-16T13:56:58.058Z,94485.88
2019-05-16T13:59:24.455Z,94487.64
2019-05-16T14:01:50.825Z,94482.52
2019-05-16T14:04:17.483Z,94477.25
2019-05-16T14:06:44.218Z,94470.49
2019-05-16T14:11:36.947Z,94468.41
2019-05-16T14:14:04.963Z,94468.72
2019-05-16T14:16:29.623Z,94472.00
2019-05-16T14:18:57.422Z,94478.98
2019-05-16T14:21:22.343Z,94477.64
2019-05-16T14:23:53.243Z,94487.69
2019-05-16T14:26:17.236Z,94482.47
2019-05-16T14:28:44.555Z,94483.39
2019-05-16T14:31:07.916Z,94474.11
2019-05-16T14:33:36.565Z,94461.83
2019-05-16T14:36:00.579Z,94450.72
2019-05-16T14:38:27.162Z,94463.77
2019-05-16T14:40:53.420Z,94480.52
2019-05-16T14:43:19.761Z,94478.70
2019-05-16T14:45:46.676Z,94481.57
2019-05-16T14:48:12.442Z,94480.58
2019-05-16T14:50:38.869Z,94481.34
2019-05-16T14:53:07.442Z,94482.66
2019-05-16T14:55:31.538Z,94482.42
2019-05-16T14:57:57.990Z,94483.01
2019-05-16T15:00:27.391Z,94486.64
2019-05-16T15:02:50.723Z,94499.13
2019-05-16T15:07:43.466Z,94500.19
2019-05-16T15:10:09.771Z,94492.91
2019-05-16T15:12:37.643Z,94499.55
2019-05-16T15:15:17.347Z,94489.42
2019-05-16T15:17:29.022Z,94491.53
2019-05-16T15:19:57.121Z,94493.67
2019-05-16T15:22:21.698Z,94491.91
2019-05-16T15:24:48.033Z,94490.27
2019-05-16T15:29:40.748Z,94492.01
2019-05-16T15:32:07.209Z,94490.84
2019-05-16T15:34:34.711Z,94490.77
2019-05-16T15:37:00.189Z,94480.22
2019-05-16T15:39:27.644Z,94475.45
2019-05-16T15:41:52.656Z,94472.92
2019-05-16T15:44:19.000Z,94467.87
2019-05-16T15:46:47.645Z,94467.82
2019-05-16T15:49:11.701Z,94466.87
2019-05-16T15:51:38.091Z,94463.88
2019-05-16T15:54:06.578Z,94451.95
2019-05-16T15:56:30.772Z,94447.13
2019-05-16T15:58:57.119Z,94449.08
2019-05-16T16:01:23.453Z,94447.76
2019-05-16T16:03:49.847Z,94444.25
2019-05-16T16:06:17.742Z,94446.83
2019-05-16T16:08:42.521Z,94446.48
2019-05-16T16:13:37.435Z,94454.97
2019-05-16T16:16:01.599Z,94462.55
2019-05-16T16:18:27.965Z,94465.64
2019-05-16T16:20:56.816Z,94468.17
2019-05-16T16:23:20.750Z,94468.42
2019-05-16T16:25:50.226Z,94450.03
2019-05-16T16:28:13.411Z,94450.03
2019-05-16T16:30:39.845Z,94463.67
2019-05-16T16:35:32.602Z,94473.62
2019-05-16T16:37:58.978Z,94477.49
2019-05-16T16:40:26.648Z,94467.92
2019-05-16T16:42:51.822Z,94468.80
2019-05-16T16:45:18.357Z,94471.38
2019-05-16T16:47:46.870Z,94471.73
2019-05-16T16:50:11.057Z,94481.39
2019-05-16T16:52:38.106Z,94485.55
2019-05-16T16:55:03.760Z,94480.52
2019-05-16T16:57:30.110Z,94480.04
2019-05-16T16:59:56.498Z,94484.31
2019-05-16T17:02:22.829Z,94483.50
2019-05-16T17:04:50.805Z,94484.13
2019-05-16T17:07:16.757Z,94478.23
2019-05-16T17:09:41.897Z,94475.78
2019-05-16T17:12:08.274Z,94474.02
2019-05-16T17:14:36.879Z,94479.72
2019-05-16T17:17:00.925Z,94481.01
2019-05-16T17:19:27.246Z,94484.88
2019-05-16T17:22:10.642Z,94484.88
2019-05-16T17:24:19.967Z,94496.02
2019-05-16T17:26:47.805Z,94499.89
2019-05-16T17:29:12.639Z,94501.53
2019-05-16T17:31:41.987Z,94505.06
2019-05-16T17:34:08.572Z,94509.41
2019-05-16T17:36:37.080Z,94515.73
2019-05-16T17:39:01.063Z,94526.05
2019-05-16T17:41:27.429Z,94526.66
2019-05-16T17:43:56.204Z,94532.62
2019-05-16T17:46:33.683Z,94535.37
2019-05-16T17:48:46.933Z,94539.71
2019-05-16T17:51:12.876Z,94543.70
2019-05-16T17:53:39.204Z,94539.98
2019-05-16T17:56:06.855Z,94539.02
2019-05-16T17:58:31.938Z,94545.63
2019-05-16T18:01:00.446Z,94551.25
2019-05-16T18:03:26.463Z,94548.48
2019-05-16T18:05:51.007Z,94547.31
2019-05-16T18:08:17.466Z,94550.64
2019-05-16T18:10:43.816Z,94550.91
2019-05-16T18:15:36.828Z,94547.12
2019-05-16T18:18:02.871Z,94549.51
2019-05-16T18:20:29.206Z,94554.31
2019-05-16T18:22:56.925Z,94566.55
2019-05-16T18:25:21.886Z,94567.09
2019-05-16T18:27:48.270Z,94574.25
2019-05-16T18:30:16.750Z,94579.06
2019-05-16T18:32:40.962Z,94586.72
2019-05-16T18:35:07.573Z,94589.30
2019-05-16T18:37:33.672Z,94591.83
2019-05-16T18:40:00.028Z,94581.44
2019-05-16T18:42:27.559Z,94584.48
2019-05-16T18:44:52.809Z,94581.83
2019-05-16T18:47:19.147Z,94583.27
2019-05-16T18:49:47.337Z,94590.53
2019-05-16T18:52:11.874Z,94590.77
2019-05-16T18:54:38.209Z,94593.14
2019-05-16T18:57:06.821Z,94586.61
2019-05-16T18:59:30.897Z,94589.70
2019-05-16T19:01:57.272Z,94594.35
2019-05-16T19:04:23.659Z,94593.21
2019-05-16T19:06:49.990Z,94597.19
2019-05-16T19:09:16.721Z,94598.43
2019-05-16T19:11:42.703Z,94601.01
2019-05-16T19:14:08.992Z,94597.99
2019-05-16T19:16:35.327Z,94601.73
2019-05-16T19:19:01.664Z,94601.54
2019-05-16T19:21:27.995Z,94597.79
2019-05-16T19:23:56.256Z,94597.44
2019-05-16T19:26:20.821Z,94603.20
2019-05-16T19:28:47.168Z,94603.20
2019-05-16T19:31:13.499Z,94608.16
2019-05-16T19:33:39.836Z,94609.36
2019-05-16T19:36:07.271Z,94611.00
2019-05-16T19:38:32.718Z,94616.62
2019-05-16T19:40:59.015Z,94603.18
2019-05-16T19:43:26.480Z,94597.94
2019-05-16T19:45:51.710Z,94604.58
2019-05-16T19:48:18.082Z,94605.93
2019-05-16T19:50:46.359Z,94611.55
2019-05-16T19:53:10.781Z,94603.15
2019-05-16T19:55:37.120Z,94612.28
2019-05-16T19:58:03.506Z,94615.36
2019-05-16T20:00:29.856Z,94616.41
2019-05-16T20:02:56.880Z,94618.98
2019-05-16T20:05:22.602Z,94605.05
2019-05-16T20:07:50.173Z,94606.80
2019-05-16T20:10:16.939Z,94610.45
2019-05-16T20:12:41.657Z,94613.03
2019-05-16T20:15:11.639Z,94611.07
2019-05-16T20:17:36.458Z,94606.76
2019-05-16T20:20:00.756Z,94602.11
2019-05-16T20:22:27.150Z,94604.12
2019-05-16T20:27:19.841Z,94607.63
2019-05-16T20:29:47.433Z,94615.83
2019-05-16T20:32:12.561Z,94615.62
2019-05-16T20:34:38.913Z,94615.06
2019-05-16T20:37:06.182Z,94615.52
2019-05-16T20:39:31.633Z,94622.57
2019-05-16T20:41:59.755Z,94614.75
2019-05-16T20:44:26.602Z,94614.64
2019-05-16T20:49:17.106Z,94613.72
2019-05-16T20:51:43.438Z,94610.21
2019-05-16T20:54:09.774Z,94610.79
2019-05-16T20:56:36.106Z,94619.48
2019-05-16T20:59:02.436Z,94617.84
2019-05-16T21:01:28.882Z,94621.14
2019-05-16T21:03:57.187Z,94621.25
2019-05-16T21:06:21.571Z,94628.51
2019-05-16T21:11:32.242Z,94621.39
2019-05-16T21:13:58.663Z,94622.94
2019-05-16T21:16:26.973Z,94627.73
2019-05-16T21:18:51.438Z,94628.13
2019-05-16T21:21:19.395Z,94629.56
2019-05-16T21:23:44.203Z,94626.13
2019-05-16T21:26:10.641Z,94625.92
2019-05-16T21:31:03.378Z,94620.09
2019-05-16T21:33:29.825Z,94627.45
2019-05-16T21:35:56.580Z,94626.99
2019-05-16T21:38:22.687Z,94631.11
2019-05-16T21:40:49.195Z,94636.36
2019-05-16T21:43:16.813Z,94632.64
2019-05-16T21:45:42.279Z,94638.84
2019-05-16T21:48:08.567Z,94640.62
2019-05-16T21:53:01.531Z,94651.38
2019-05-16T21:55:30.057Z,94653.13
2019-05-16T21:57:57.372Z,94650.56
2019-05-16T22:00:20.592Z,94652.92
2019-05-16T22:02:46.995Z,94655.95
2019-05-16T22:05:13.426Z,94652.64
2019-05-16T22:07:39.797Z,94647.49
2019-05-16T22:10:06.493Z,94649.74
2019-05-16T22:12:32.595Z,94647.28
2019-05-16T22:14:59.077Z,94651.95
2019-05-16T22:17:27.470Z,94645.77
2019-05-16T22:19:51.847Z,94649.85
2019-05-16T22:22:18.227Z,94645.42
2019-05-16T22:24:46.186Z,94639.34
2019-05-16T22:27:10.954Z,94641.81
2019-05-16T22:29:37.337Z,94638.91
2019-05-16T22:32:03.715Z,94643.56
2019-05-16T22:34:30.055Z,94634.30
2019-05-16T22:36:57.262Z,94633.19
2019-05-16T22:39:22.711Z,94633.77
2019-05-16T22:41:49.042Z,94631.91
2019-05-16T22:44:17.699Z,94637.38
2019-05-16T22:46:41.738Z,94642.27
2019-05-16T22:49:08.060Z,94634.48
2019-05-16T22:51:36.523Z,94638.80
2019-05-16T22:54:00.780Z,94630.62
2019-05-16T22:56:27.128Z,94621.72
2019-05-16T22:58:53.463Z,94624.30
2019-05-16T23:01:19.813Z,94616.47
2019-05-16T23:03:46.117Z,94601.14
2019-05-16T23:06:12.519Z,94607.46
2019-05-16T23:08:38.863Z,94599.17
2019-05-16T23:11:07.282Z,94603.49
2019-05-16T23:13:31.552Z,94603.49
2019-05-16T23:15:57.884Z,94611.22
2019-05-16T23:18:26.569Z,94616.47
2019-05-16T23:20:50.530Z,94618.47
2019-05-16T23:23:17.400Z,94621.97
2019-05-16T23:25:43.251Z,94621.37
2019-05-16T23:28:09.639Z,94614.39
2019-05-16T23:30:36.641Z,94618.36
2019-05-16T23:33:02.328Z,94614.14
2019-05-16T23:35:28.698Z,94614.39
2019-05-16T23:37:56.895Z,94615.43
2019-05-16T23:40:21.330Z,94612.39
2019-05-16T23:42:47.671Z,94615.89
2019-05-16T23:45:13.999Z,94615.82
2019-05-16T23:47:40.346Z,94613.11
2019-05-16T23:50:07.577Z,94618.25
2019-05-16T23:54:59.338Z,94608.42
2019-05-16T23:57:26.577Z,94607.28
2019-05-16T23:59:51.995Z,94593.34
